Time;durP1;ratioP1;P1;durP2;ratioP2;P2;SDS_P1;SDS_P2;PMS_P1;PMS_P2;Temp;Humidity;BMP_temperature;BMP_pressure;BME280_temperature;BME280_humidity;BME280_pressure;Samples;Min_cycle;Max_cycle;Signal;HPM_P1;HPM_P2
2021/10/08 00:00:43;;;;;;;12.10;5.90;;;;;;;5.58;65.38;98402.08;115996;1182;70704;-62
2021/10/08 00:03:14;;;;;;;11.20;6.10;;;;;;;5.49;66.30;98402.23;115868;1184;68518;-62
2021/10/08 00:05:44;;;;;;;11.90;7.80;;;;;;;5.41;66.80;98402.70;115853;1184;69262;-65
2021/10/08 00:08:14;;;;;;;12.30;7.30;;;;;;;5.33;67.18;98401.75;116002;1184;59934;-63
2021/10/08 00:10:44;;;;;;;11.80;8.50;;;;;;;5.28;67.08;98406.42;116070;1183;59548;-63
2021/10/08 00:13:14;;;;;;;9.20;6.30;;;;;;;5.24;67.16;98404.68;116079;1184;71161;-62
2021/10/08 00:15:44;;;;;;;10.90;6.40;;;;;;;5.21;66.94;98407.02;116117;1182;67471;-64
2021/10/08 00:18:14;;;;;;;;;;;;;;;5.19;66.87;98405.21;116151;1182;69234;-62
2021/10/08 00:20:45;;;;;;;11.90;7.40;;;;;;;5.15;67.30;98410.36;115995;1184;59569;-62
2021/10/08 00:23:16;;;;;;;9.60;5.80;;;;;;;5.12;66.98;98408.54;116129;1182;59934;-65
2021/10/08 00:25:46;;;;;;;13.70;7.50;;;;;;;5.11;66.71;98409.27;116085;1182;69752;-65
2021/10/08 00:28:16;;;;;;;13.40;8.50;;;;;;;5.09;66.72;98409.17;116185;1184;68361;-65
2021/10/08 00:30:46;;;;;;;16.20;8.00;;;;;;;5.06;67.16;98411.19;116061;1182;69319;-62
2021/10/08 00:33:17;;;;;;;9.00;5.60;;;;;;;5.05;67.02;98410.71;116091;1182;59572;-62
2021/10/08 00:35:47;;;;;;;;;;;;;;;5.04;66.47;98409.34;115912;1184;59479;-65
2021/10/08 00:38:17;;;;;;;11.80;7.10;;;;;;;5.01;67.01;98407.89;115926;1182;71533;-66
2021/10/08 00:40:47;;;;;;;12.10;6.80;;;;;;;4.99;66.99;98408.33;116049;1182;67702;-62
2021/10/08 00:43:22;;;;;;;7.70;5.70;;;;;;;4.97;66.72;98409.77;116150;1182;67475;-62
2021/10/08 00:45:52;;;;;;;10.80;6.70;;;;;;;4.95;66.39;98408.30;115963;1184;59539;-62
2021/10/08 00:48:22;;;;;;;;;;;;;;;4.92;65.88;98404.76;115987;1182;59520;-63
2021/10/08 00:50:52;;;;;;;12.80;7.80;;;;;;;4.91;66.01;98408.44;116026;1182;70424;-62
2021/10/08 00:53:22;;;;;;;12.20;7.90;;;;;;;4.90;66.07;98408.10;116108;1182;67689;-63
2021/10/08 00:55:52;;;;;;;18.10;8.40;;;;;;;4.88;66.51;98406.95;116048;1182;69033;-66
2021/10/08 00:58:22;;;;;;;;;;;;;;;4.88;66.68;98404.20;116079;1182;59561;-66
2021/10/08 01:00:53;;;;;;;9.00;5.70;;;;;;;4.87;66.32;98406.34;116125;1182;59557;-63
2021/10/08 01:03:23;;;;;;;8.70;5.30;;;;;;;4.87;65.93;98405.30;116206;1183;70603;-64
2021/10/08 01:05:54;;;;;;;10.20;5.90;;;;;;;4.87;65.22;98402.02;115978;1185;67568;-66
2021/10/08 01:08:24;;;;;;;9.40;6.40;;;;;;;4.88;65.22;98396.77;115737;1176;68460;-66
2021/10/08 01:10:56;;;;;;;12.10;6.70;;;;;;;4.90;65.02;98396.90;115928;1184;59567;-65
2021/10/08 01:13:26;;;;;;;11.60;6.90;;;;;;;4.90;65.62;98394.64;115803;1184;59656;-64
2021/10/08 01:15:56;;;;;;;10.10;6.00;;;;;;;4.90;65.54;98393.95;115965;1184;71378;-62
2021/10/08 01:18:28;;;;;;;9.00;5.50;;;;;;;4.90;65.03;98395.50;115962;1184;68549;-64
2021/10/08 01:20:59;;;;;;;11.90;6.20;;;;;;;4.89;65.10;98392.41;115945;1184;68320;-61
2021/10/08 01:23:28;;;;;;;;;;;;;;;4.86;66.23;98390.79;116056;1184;59559;-65
2021/10/08 01:25:59;;;;;;;;;;;;;;;4.84;65.53;98387.91;115936;1183;59581;-62
2021/10/08 01:28:32;;;;;;;11.00;5.70;;;;;;;4.83;65.60;98387.45;116046;1184;72191;-66
2021/10/08 01:31:06;;;;;;;8.70;5.60;;;;;;;4.81;65.47;98388.04;115916;1184;67687;-62
2021/10/08 01:34:03;;;;;;;13.10;7.10;;;;;;;4.81;65.27;98379.91;115886;1184;70020;-63
2021/10/08 01:36:40;;;;;;;11.20;7.40;;;;;;;4.78;66.08;98379.16;115975;1184;59558;-67
2021/10/08 01:39:11;;;;;;;11.90;7.00;;;;;;;4.77;66.46;98378.34;115937;1184;59558;-64
2021/10/08 01:41:41;;;;;;;11.70;6.50;;;;;;;4.76;66.15;98378.71;115975;1184;71382;-63
2021/10/08 01:44:18;;;;;;;10.00;7.00;;;;;;;4.75;65.77;98383.05;115985;1184;67915;-66
2021/10/08 01:46:52;;;;;;;11.00;6.40;;;;;;;4.74;65.74;98379.80;115927;1184;68546;-62
2021/10/08 01:49:25;;;;;;;15.70;6.60;;;;;;;4.75;65.09;98381.85;115897;1184;59564;-65
2021/10/08 01:51:58;;;;;;;7.10;4.10;;;;;;;4.77;64.79;98380.75;115988;1184;59484;-62
2021/10/08 01:54:32;;;;;;;12.60;6.40;;;;;;;4.77;65.19;98382.48;115910;1184;71470;-64
2021/10/08 01:57:02;;;;;;;12.00;6.60;;;;;;;4.74;66.16;98380.33;116032;1184;69699;-64
2021/10/08 01:59:34;;;;;;;13.80;6.70;;;;;;;4.70;66.27;98378.58;116011;1184;68458;-63
2021/10/08 02:02:05;;;;;;;9.10;6.40;;;;;;;4.67;65.94;98380.23;115988;1183;59563;-62
2021/10/08 02:04:36;;;;;;;6.40;4.50;;;;;;;4.64;65.72;98378.96;115920;1184;59489;-65
2021/10/08 02:07:07;;;;;;;13.10;7.30;;;;;;;4.61;65.99;98381.81;115992;1184;70610;-63
2021/10/08 02:09:40;;;;;;;8.30;5.60;;;;;;;4.55;66.91;98383.37;115915;1184;68452;-65
2021/10/08 02:12:11;;;;;;;15.00;7.80;;;;;;;4.48;67.37;98383.08;116043;1184;69051;-66
2021/10/08 02:14:40;;;;;;;14.50;8.40;;;;;;;4.40;68.17;98384.75;116106;1181;59612;-62
2021/10/08 02:17:10;;;;;;;12.20;8.20;;;;;;;4.31;68.87;98383.48;116006;1183;59556;-65
2021/10/08 02:19:40;;;;;;;14.80;8.80;;;;;;;4.22;69.17;98388.45;115885;1184;72697;-62
2021/10/08 02:22:10;;;;;;;15.00;7.70;;;;;;;4.15;69.40;98386.42;115981;1182;67755;-64
2021/10/08 02:24:45;;;;;;;12.30;6.70;;;;;;;4.12;69.56;98385.98;115993;1184;68833;-67
2021/10/08 02:27:15;;;;;;;14.50;7.70;;;;;;;4.12;69.05;98385.14;116016;1184;59569;-62
2021/10/08 02:29:45;;;;;;;6.40;4.60;;;;;;;4.08;69.30;98386.26;115956;1184;59557;-63
2021/10/08 02:32:16;;;;;;;9.70;6.30;;;;;;;4.11;68.16;98387.40;115980;1184;70290;-63
2021/10/08 02:34:46;;;;;;;11.80;6.10;;;;;;;4.14;68.05;98386.80;115885;1184;68235;-63
2021/10/08 02:37:17;;;;;;;10.80;6.20;;;;;;;4.14;68.35;98387.48;115936;1183;68255;-66
2021/10/08 02:39:47;;;;;;;10.30;6.70;;;;;;;4.13;68.29;98387.16;115853;1184;60135;-66
2021/10/08 02:42:17;;;;;;;15.80;8.20;;;;;;;4.04;69.91;98391.38;115977;1184;59596;-64
2021/10/08 02:44:48;;;;;;;15.20;8.20;;;;;;;3.97;70.47;98394.53;115974;1184;71431;-63
2021/10/08 02:47:18;;;;;;;9.60;6.20;;;;;;;3.93;70.47;98392.25;115959;1184;67873;-64
2021/10/08 02:49:49;;;;;;;13.10;7.40;;;;;;;3.88;70.99;98391.36;115845;1184;68498;-61
2021/10/08 02:52:19;;;;;;;11.00;6.90;;;;;;;3.86;70.89;98390.92;116059;1184;59657;-63
2021/10/08 02:55:08;;;;;;;11.00;6.10;;;;;;;3.85;70.00;98389.23;115925;1178;59903;-68
2021/10/08 02:57:39;;;;;;;15.00;7.60;;;;;;;3.83;70.43;98391.67;116007;1183;71383;-64
2021/10/08 03:00:10;;;;;;;10.60;6.60;;;;;;;3.82;70.74;98392.76;115987;1184;68554;-63
2021/10/08 03:02:40;;;;;;;10.70;6.40;;;;;;;3.81;70.03;98391.23;115899;1184;70199;-64
2021/10/08 03:05:10;;;;;;;12.00;7.60;;;;;;;3.79;70.79;98391.63;116066;1182;60689;-64
2021/10/08 03:07:40;;;;;;;11.70;6.70;;;;;;;3.75;70.71;98395.04;116122;1182;59570;-66
2021/10/08 03:10:14;;;;;;;9.70;6.00;;;;;;;3.71;70.26;98395.67;115996;1184;70674;-63
2021/10/08 03:12:46;;;;;;;13.60;7.60;;;;;;;3.68;71.00;98394.20;115897;1184;67508;-66
2021/10/08 03:15:16;;;;;;;12.70;7.70;;;;;;;3.65;71.75;98397.74;115928;1184;69089;-65
2021/10/08 03:17:48;;;;;;;10.00;5.90;;;;;;;3.62;71.31;98393.34;115926;1183;59561;-66
2021/10/08 03:20:18;;;;;;;10.40;6.70;;;;;;;3.60;71.23;98393.92;115984;1184;59584;-66
2021/10/08 03:22:49;;;;;;;15.10;7.70;;;;;;;3.58;71.56;98395.19;115813;1184;70618;-65
2021/10/08 03:25:19;;;;;;;10.50;7.30;;;;;;;3.56;71.66;98395.41;115939;1183;68508;-65
2021/10/08 03:27:50;;;;;;;9.30;5.60;;;;;;;3.54;71.79;98397.71;115988;1184;69282;-62
2021/10/08 03:30:20;;;;;;;7.20;5.20;;;;;;;3.53;71.01;98400.67;116110;1183;59599;-64
2021/10/08 03:32:50;;;;;;;10.60;5.70;;;;;;;3.57;70.24;98399.70;115847;1184;58697;-64
2021/10/08 03:35:20;;;;;;;13.50;6.90;;;;;;;3.57;70.48;98398.67;116150;1183;71764;-62
2021/10/08 03:37:56;;;;;;;9.20;5.60;;;;;;;3.56;70.34;98403.18;115968;1183;66698;-64
2021/10/08 03:40:29;;;;;;;9.10;5.10;;;;;;;3.55;70.11;98402.52;115932;1184;69282;-65
2021/10/08 03:43:01;;;;;;;12.90;8.30;;;;;;;3.50;71.86;98407.48;116000;1184;59548;-62
2021/10/08 03:45:32;;;;;;;14.10;8.30;;;;;;;3.43;73.08;98407.52;115954;1183;59585;-63
2021/10/08 03:50:34;;;;;;;13.00;6.10;;;;;;;3.40;71.81;98405.88;115974;1184;67492;-63
2021/10/08 03:53:05;;;;;;;12.70;6.40;;;;;;;3.35;73.11;98407.73;116018;1184;68731;-64
2021/10/08 03:55:35;;;;;;;13.20;7.70;;;;;;;3.34;72.40;98406.73;116090;1183;59615;-62
2021/10/08 03:58:05;;;;;;;;;;;;;;;3.32;72.28;98408.33;116110;1181;59591;-62
2021/10/08 04:00:36;;;;;;;16.00;8.00;;;;;;;3.35;72.39;98414.11;116037;1184;70637;-65
2021/10/08 04:03:11;;;;;;;11.40;6.90;;;;;;;3.22;73.34;98415.50;116083;1183;68409;-66
2021/10/08 04:05:43;;;;;;;13.80;6.80;;;;;;;3.21;72.59;98414.50;115975;1184;69321;-67
2021/10/08 04:08:13;;;;;;;13.30;7.70;;;;;;;3.16;72.19;98407.75;116052;1184;59538;-63
2021/10/08 04:10:49;;;;;;;11.80;7.80;;;;;;;3.11;72.31;98408.39;116096;1183;59532;-63
2021/10/08 04:13:20;;;;;;;15.80;7.80;;;;;;;3.04;72.76;98406.85;116056;1183;71505;-64
2021/10/08 04:15:50;;;;;;;12.40;7.30;;;;;;;2.98;72.64;98404.45;116093;1184;67578;-66
2021/10/08 04:18:20;;;;;;;13.80;7.30;;;;;;;2.92;72.77;98403.21;115900;1184;68508;-66
2021/10/08 04:20:51;;;;;;;15.60;9.10;;;;;;;2.84;73.39;98404.29;116027;1184;59564;-65
2021/10/08 04:23:21;;;;;;;12.30;7.10;;;;;;;2.76;74.17;98403.61;115931;1184;59546;-66
2021/10/08 04:25:51;;;;;;;9.20;5.70;;;;;;;2.73;74.02;98409.05;116065;1184;71318;-64
2021/10/08 04:28:21;;;;;;;12.20;7.40;;;;;;;2.72;73.27;98409.41;116058;1182;67759;-64
2021/10/08 04:30:50;;;;;;;12.70;7.80;;;;;;;2.70;74.10;98407.59;116038;1184;68793;-66
2021/10/08 04:33:23;;;;;;;10.90;8.10;;;;;;;2.64;74.11;98411.52;115965;1184;59553;-66
2021/10/08 04:35:59;;;;;;;12.80;8.50;;;;;;;2.59;73.88;98408.89;116032;1181;59518;-63
2021/10/08 04:38:32;;;;;;;11.90;7.50;;;;;;;2.52;74.67;98411.98;116082;1182;70603;-64
2021/10/08 04:41:07;;;;;;;13.70;8.70;;;;;;;2.50;74.19;98414.09;116049;1184;68176;-64
2021/10/08 04:43:37;;;;;;;10.80;6.80;;;;;;;2.45;75.92;98413.34;115934;1184;69167;-62
2021/10/08 04:46:07;;;;;;;13.30;7.80;;;;;;;2.45;74.37;98419.72;115989;1184;59552;-62
2021/10/08 04:48:37;;;;;;;12.10;7.10;;;;;;;2.46;74.29;98417.65;116063;1181;59541;-65
2021/10/08 04:51:06;;;;;;;12.40;6.10;;;;;;;2.49;74.87;98422.20;116042;1184;70557;-63
2021/10/08 04:53:38;;;;;;;10.10;6.50;;;;;;;2.51;75.09;98423.86;115977;1184;68605;-61
2021/10/08 04:56:08;;;;;;;10.30;6.60;;;;;;;2.55;75.35;98424.47;116035;1184;69011;-63
2021/10/08 04:58:38;;;;;;;13.10;6.80;;;;;;;2.56;75.42;98427.03;116019;1184;59546;-62
2021/10/08 05:01:07;;;;;;;13.30;6.30;;;;;;;2.57;75.20;98427.70;116176;1184;59544;-63
2021/10/08 05:03:37;;;;;;;8.80;5.50;;;;;;;2.56;74.85;98432.37;116180;1183;71458;-65
2021/10/08 05:06:07;;;;;;;10.80;5.90;;;;;;;2.58;74.73;98433.69;116210;1182;68379;-63
2021/10/08 05:08:42;;;;;;;9.70;7.30;;;;;;;2.60;74.96;98435.38;116095;1184;69522;-65
2021/10/08 05:11:12;;;;;;;;;;;;;;;2.61;74.88;98434.13;115987;1184;59580;-64
2021/10/08 05:13:42;;;;;;;17.00;10.80;;;;;;;2.59;75.80;98430.92;116041;1184;59554;-63
2021/10/08 05:16:12;;;;;;;13.30;8.90;;;;;;;2.61;75.41;98430.20;116073;1184;71257;-65
2021/10/08 05:18:42;;;;;;;6.00;4.80;;;;;;;2.67;74.57;98433.14;116005;1184;68534;-66
2021/10/08 05:21:14;;;;;;;13.20;8.30;;;;;;;2.78;74.51;98432.69;115971;1182;68308;-65
2021/10/08 05:23:44;;;;;;;12.20;7.50;;;;;;;2.97;74.30;98432.71;116090;1184;59590;-61
2021/10/08 05:26:16;;;;;;;13.30;7.40;;;;;;;3.21;74.24;98431.22;116025;1182;59553;-62
2021/10/08 05:28:45;;;;;;;13.40;9.00;;;;;;;3.49;73.73;98436.99;115941;1183;71370;-63
2021/10/08 05:31:15;;;;;;;14.10;8.30;;;;;;;3.84;73.28;98435.30;115976;1182;67980;-61
2021/10/08 05:33:45;;;;;;;16.90;11.10;;;;;;;4.25;72.16;98441.14;115958;1184;68455;-62
2021/10/08 05:36:15;;;;;;;10.80;7.30;;;;;;;4.68;70.66;98434.39;116079;1182;59532;-63
2021/10/08 05:38:45;;;;;;;14.00;8.30;;;;;;;5.25;71.12;98438.52;116040;1184;59503;-63
2021/10/08 05:41:15;;;;;;;11.10;7.10;;;;;;;5.73;67.79;98437.99;116125;1184;70735;-64
2021/10/08 05:43:45;;;;;;;12.20;8.20;;;;;;;6.20;67.84;98439.02;116127;1183;67654;-65
2021/10/08 05:46:16;;;;;;;10.50;6.70;;;;;;;6.66;65.88;98438.09;116098;1184;68494;-65
2021/10/08 05:48:45;;;;;;;15.10;8.50;;;;;;;7.11;64.59;98438.27;115911;1184;59533;-65
2021/10/08 05:51:16;;;;;;;14.70;9.40;;;;;;;7.43;62.72;98436.04;116060;1184;59564;-68
2021/10/08 05:53:45;;;;;;;15.30;10.10;;;;;;;7.64;61.33;98441.52;116038;1184;70633;-67
2021/10/08 05:56:14;;;;;;;17.50;10.20;;;;;;;7.84;60.21;98439.05;115953;1183;67760;-65
2021/10/08 05:58:44;;;;;;;13.50;10.00;;;;;;;8.06;59.88;98442.05;116049;1184;69376;-63
2021/10/08 06:01:15;;;;;;;23.20;15.10;;;;;;;8.32;59.20;98441.34;116073;1184;59488;-65
2021/10/08 06:03:45;;;;;;;19.70;13.00;;;;;;;8.64;58.54;98434.77;116254;1182;59523;-67
2021/10/08 06:06:14;;;;;;;14.90;11.10;;;;;;;8.93;58.24;98435.62;116156;1182;71427;-63
2021/10/08 06:08:43;;;;;;;19.80;13.60;;;;;;;9.26;56.10;98440.55;116134;1182;67654;-64
2021/10/08 06:11:14;;;;;;;18.30;14.00;;;;;;;9.47;54.96;98441.76;115999;1174;68477;-65
2021/10/08 06:13:45;;;;;;;23.40;15.40;;;;;;;9.66;54.51;98443.17;116050;1184;60396;-65
2021/10/08 06:16:14;;;;;;;24.60;17.10;;;;;;;9.84;52.84;98442.21;116049;1184;59574;-66
2021/10/08 06:18:44;;;;;;;25.50;16.90;;;;;;;10.11;52.97;98440.24;115888;1184;71456;-63
2021/10/08 06:21:14;;;;;;;20.10;13.10;;;;;;;10.59;51.81;98440.09;116144;1182;67591;-66
2021/10/08 06:23:44;;;;;;;14.00;9.30;;;;;;;11.08;52.86;98435.13;116012;1184;70195;-63
2021/10/08 06:26:13;;;;;;;15.50;10.20;;;;;;;11.53;53.28;98438.59;116118;1182;59576;-64
2021/10/08 06:28:43;;;;;;;17.00;11.60;;;;;;;11.84;51.78;98432.88;116114;1182;59564;-63
2021/10/08 06:31:13;;;;;;;24.00;16.30;;;;;;;12.05;50.75;98436.97;116045;1183;70793;-63
2021/10/08 06:33:44;;;;;;;16.70;12.50;;;;;;;12.24;48.47;98439.61;116018;1184;68532;-65
2021/10/08 06:36:14;;;;;;;19.60;14.10;;;;;;;12.46;48.53;98436.84;116079;1184;68413;-65
2021/10/08 06:38:46;;;;;;;18.70;11.30;;;;;;;12.58;48.15;98436.95;116004;1184;59561;-63
2021/10/08 06:41:15;;;;;;;13.60;10.30;;;;;;;12.65;48.39;98439.59;116012;1184;59580;-64
2021/10/08 06:43:45;;;;;;;12.70;8.90;;;;;;;12.85;47.88;98440.25;116050;1183;71114;-67
2021/10/08 06:46:23;;;;;;;17.50;10.30;;;;;;;13.07;46.61;98438.63;115966;1183;67733;-65
2021/10/08 06:48:53;;;;;;;;;;;;;;;13.03;45.16;98436.09;116036;1183;69302;-66
2021/10/08 06:51:22;;;;;;;15.60;10.20;;;;;;;13.00;44.96;98438.19;116064;1184;59563;-66
2021/10/08 06:53:52;;;;;;;14.60;9.30;;;;;;;12.98;44.84;98440.64;116118;1182;59950;-65
2021/10/08 06:56:22;;;;;;;11.30;7.20;;;;;;;13.08;44.24;98438.23;116091;1184;71417;-65
2021/10/08 06:58:59;;;;;;;8.80;6.40;;;;;;;13.22;44.29;98440.62;115980;1183;67891;-66
2021/10/08 07:01:28;;;;;;;20.20;9.00;;;;;;;13.21;41.92;98446.30;116078;1184;69256;-64
2021/10/08 07:03:58;;;;;;;12.90;8.10;;;;;;;13.17;43.66;98447.05;115989;1184;60015;-64
2021/10/08 07:06:29;;;;;;;10.20;6.00;;;;;;;13.22;42.91;98450.23;116156;1182;59515;-64
2021/10/08 07:09:05;;;;;;;9.30;5.80;;;;;;;13.22;42.47;98450.58;116139;1182;71115;-64
2021/10/08 07:11:35;;;;;;;13.60;7.00;;;;;;;13.30;43.63;98452.88;116137;1184;67916;-65
2021/10/08 07:14:04;;;;;;;;;;;;;;;13.41;43.41;98450.52;116181;1184;69253;-66
2021/10/08 07:16:34;;;;;;;12.50;7.40;;;;;;;13.43;41.55;98449.34;116056;1183;59535;-64
2021/10/08 07:19:08;;;;;;;8.00;5.90;;;;;;;13.44;41.51;98446.63;116129;1183;59479;-64
2021/10/08 07:21:39;;;;;;;10.70;6.80;;;;;;;13.48;41.99;98445.48;116037;1184;71758;-63
2021/10/08 07:24:10;;;;;;;16.10;8.40;;;;;;;13.52;41.18;98453.14;116006;1184;68341;-63
2021/10/08 07:26:39;;;;;;;11.90;6.80;;;;;;;13.28;39.63;98444.22;115985;1184;67494;-65
2021/10/08 07:29:08;;;;;;;7.60;5.40;;;;;;;13.35;40.79;98450.45;116118;1182;59489;-64
2021/10/08 07:31:37;;;;;;;11.90;7.80;;;;;;;13.56;39.08;98450.42;116176;1182;59534;-66
2021/10/08 07:34:07;;;;;;;7.20;5.20;;;;;;;13.64;38.76;98454.76;115977;1184;70594;-66
2021/10/08 07:36:36;;;;;;;10.40;6.70;;;;;;;13.99;38.43;98453.71;116133;1182;68573;-67
2021/10/08 07:39:05;;;;;;;15.20;8.60;;;;;;;14.52;38.32;98456.13;116131;1185;69290;-64
2021/10/08 07:41:35;;;;;;;18.80;9.10;;;;;;;15.13;37.32;98449.33;116085;1184;59569;-67
2021/10/08 07:44:05;;;;;;;21.50;11.50;;;;;;;15.77;35.29;98452.19;116096;1182;59548;-64
2021/10/08 07:46:34;;;;;;;;;;;;;;;16.13;33.42;98455.57;116096;1184;71451;-68
2021/10/08 07:49:03;;;;;;;9.30;5.30;;;;;;;16.32;33.02;98455.95;116239;1184;67985;-65
2021/10/08 07:51:33;;;;;;;12.30;5.10;;;;;;;16.24;32.32;98455.50;116067;1184;69258;-64
2021/10/08 07:54:03;;;;;;;6.10;4.40;;;;;;;16.10;32.94;98460.14;116111;1184;59621;-67
2021/10/08 07:56:32;;;;;;;11.50;6.70;;;;;;;16.00;33.90;98457.42;116059;1183;59679;-66
2021/10/08 07:59:03;;;;;;;12.70;7.10;;;;;;;15.83;33.79;98457.70;116178;1183;71497;-69
2021/10/08 08:01:32;;;;;;;12.30;7.10;;;;;;;15.71;34.03;98451.78;116030;1184;68635;-67
2021/10/08 08:04:02;;;;;;;8.90;6.00;;;;;;;15.59;34.04;98454.96;116243;1184;69042;-68
2021/10/08 08:06:31;;;;;;;8.80;6.10;;;;;;;15.70;33.50;98455.58;116197;1182;59548;-67
2021/10/08 08:09:00;;;;;;;9.20;5.10;;;;;;;15.63;32.79;98453.59;116078;1184;59596;-67
2021/10/08 08:11:30;;;;;;;8.10;5.00;;;;;;;15.72;33.17;98454.50;116082;1183;72080;-68
2021/10/08 08:14:03;;;;;;;10.20;6.00;;;;;;;15.87;32.78;98453.00;116036;1182;68168;-65
2021/10/08 08:16:32;;;;;;;9.10;5.30;;;;;;;15.88;31.94;98456.48;116075;1184;68472;-66
2021/10/08 08:19:01;;;;;;;7.80;6.20;;;;;;;15.76;33.24;98450.00;116180;1182;59634;-65
2021/10/08 08:21:32;;;;;;;11.40;6.80;;;;;;;15.79;32.45;98455.39;116096;1182;59532;-64
2021/10/08 08:24:01;;;;;;;6.20;4.70;;;;;;;15.82;33.54;98457.95;115936;1184;71984;-68
2021/10/08 08:26:31;;;;;;;12.60;7.30;;;;;;;15.99;32.70;98453.63;116162;1184;68542;-68
2021/10/08 08:29:00;;;;;;;9.10;6.00;;;;;;;16.08;32.25;98454.72;116060;1184;69317;-63
2021/10/08 08:31:30;;;;;;;9.80;5.50;;;;;;;16.15;31.67;98455.55;116075;1183;59567;-66
2021/10/08 08:33:59;;;;;;;;;;;;;;;15.98;31.57;98452.17;116103;1182;59566;-69
2021/10/08 08:36:32;;;;;;;7.10;4.80;;;;;;;16.07;31.94;98447.77;116071;1184;72143;-66
2021/10/08 08:39:08;;;;;;;5.90;4.70;;;;;;;16.26;33.03;98446.91;116051;1184;67718;-67
2021/10/08 08:41:39;;;;;;;13.70;7.70;;;;;;;16.45;31.65;98445.27;115998;1184;67471;-64
2021/10/08 08:44:08;;;;;;;10.20;7.00;;;;;;;16.49;31.76;98439.46;116098;1184;59554;-70
2021/10/08 08:46:37;;;;;;;6.70;4.50;;;;;;;16.62;32.01;98434.89;116073;1184;59620;-68
2021/10/08 08:49:08;;;;;;;10.20;5.60;;;;;;;16.91;32.62;98437.88;116034;1182;70700;-65
2021/10/08 08:51:37;;;;;;;;;;;;;;;17.21;30.21;98436.58;116088;1183;67611;-66
2021/10/08 08:54:07;;;;;;;6.40;4.40;;;;;;;17.30;29.46;98438.92;116092;1184;68943;-67
2021/10/08 08:56:37;;;;;;;9.10;5.10;;;;;;;17.41;28.76;98436.10;116032;1184;59526;-66
2021/10/08 08:59:11;;;;;;;9.10;5.20;;;;;;;17.62;29.59;98436.64;116117;1183;59557;-67
2021/10/08 09:02:04;;;;;;;12.20;6.20;;;;;;;17.68;27.46;98432.54;115997;1184;71284;-68
2021/10/08 09:04:33;;;;;;;7.40;5.70;;;;;;;17.65;26.09;98435.16;116106;1183;68580;-68
2021/10/08 09:07:14;;;;;;;8.50;6.10;;;;;;;17.64;26.61;98435.52;116128;1182;69272;-66
2021/10/08 09:09:44;;;;;;;7.80;4.60;;;;;;;17.75;27.20;98434.64;116105;1180;59548;-65
2021/10/08 09:12:14;;;;;;;9.00;5.40;;;;;;;18.10;27.09;98435.52;116098;1184;59576;-63
2021/10/08 09:14:43;;;;;;;7.70;4.90;;;;;;;18.42;27.00;98434.23;116113;1184;70202;-64
2021/10/08 09:17:18;;;;;;;6.10;3.50;;;;;;;18.67;26.78;98430.98;116063;1185;68265;-66
2021/10/08 09:20:00;;;;;;;15.30;7.50;;;;;;;18.98;27.14;98428.40;116170;1184;69177;-67
2021/10/08 09:22:41;;;;;;;8.70;5.30;;;;;;;19.24;27.39;98423.66;116124;1182;59551;-68
2021/10/08 09:25:12;;;;;;;9.30;5.70;;;;;;;19.36;25.25;98427.52;116159;1182;59503;-65
2021/10/08 09:27:44;;;;;;;9.80;6.10;;;;;;;19.05;25.11;98424.88;116105;1182;70748;-68
2021/10/08 09:30:13;;;;;;;7.20;5.00;;;;;;;18.87;25.86;98425.46;116180;1182;68369;-68
2021/10/08 09:32:47;;;;;;;8.60;5.10;;;;;;;18.62;26.09;98421.90;116128;1182;67900;-66
2021/10/08 09:35:19;;;;;;;7.40;5.30;;;;;;;18.30;26.41;98420.36;116166;1183;59566;-64
2021/10/08 09:37:56;;;;;;;10.90;5.80;;;;;;;18.10;27.23;98425.33;116158;1184;59545;-65
2021/10/08 09:40:39;;;;;;;6.30;4.70;;;;;;;17.80;27.15;98427.48;116104;1184;71495;-63
2021/10/08 09:43:13;;;;;;;6.90;4.90;;;;;;;17.69;28.11;98426.70;116120;1174;68553;-69
2021/10/08 09:45:51;;;;;;;7.40;4.70;;;;;;;17.62;27.88;98426.04;116114;1183;69373;-70
2021/10/08 09:48:23;;;;;;;7.40;4.30;;;;;;;17.38;27.83;98420.50;116133;1182;59528;-67
2021/10/08 09:50:58;;;;;;;6.50;4.50;;;;;;;17.23;28.33;98417.56;116120;1184;59566;-66
2021/10/08 09:53:28;;;;;;;8.80;4.60;;;;;;;17.20;28.54;98413.04;116030;1184;69776;-65
2021/10/08 09:55:59;;;;;;;7.10;4.40;;;;;;;17.05;27.45;98413.59;116065;1183;68382;-63
2021/10/08 09:58:52;;;;;;;8.50;4.70;;;;;;;16.88;27.82;98414.13;116111;1183;69306;-70
2021/10/08 10:01:31;;;;;;;7.10;5.20;;;;;;;16.75;28.30;98418.52;116178;1185;59650;-69
2021/10/08 10:04:03;;;;;;;8.20;6.20;;;;;;;16.42;28.38;98421.05;116153;1182;59486;-64
2021/10/08 10:06:32;;;;;;;7.30;4.60;;;;;;;16.09;28.94;98424.73;116231;1182;72082;-64
2021/10/08 10:09:02;;;;;;;8.90;5.30;;;;;;;16.08;29.03;98430.59;116220;1183;68435;-68
2021/10/08 10:11:32;;;;;;;7.70;5.00;;;;;;;15.95;28.92;98429.48;116173;1184;68560;-67
2021/10/08 10:14:02;;;;;;;9.40;5.20;;;;;;;15.86;29.43;98428.52;116072;1184;59535;-68
2021/10/08 10:16:33;;;;;;;5.90;4.10;;;;;;;15.87;29.42;98428.02;116175;1182;59660;-65
2021/10/08 10:19:04;;;;;;;8.80;5.30;;;;;;;15.89;29.65;98427.19;116134;1184;71282;-65
2021/10/08 10:21:36;;;;;;;;;;;;;;;15.92;29.86;98420.23;116114;1184;68799;-67
2021/10/08 10:24:07;;;;;;;7.20;4.20;;;;;;;15.87;30.09;98417.34;116147;1184;70449;-65
2021/10/08 10:26:36;;;;;;;11.00;5.40;;;;;;;15.84;30.33;98413.02;116102;1183;59549;-69
2021/10/08 10:29:07;;;;;;;8.60;5.10;;;;;;;15.85;30.07;98406.63;116025;1184;59617;-68
2021/10/08 10:31:39;;;;;;;9.70;6.50;;;;;;;15.86;31.42;98406.30;116106;1184;71405;-70
2021/10/08 10:34:20;;;;;;;11.10;5.30;;;;;;;15.85;30.20;98406.79;116174;1184;67930;-72
2021/10/08 10:36:56;;;;;;;11.50;6.30;;;;;;;15.87;29.87;98409.80;115936;1185;69354;-70
2021/10/08 10:39:38;;;;;;;6.70;3.70;;;;;;;15.88;30.83;98407.08;116090;1184;59595;-68
2021/10/08 10:42:17;;;;;;;8.90;5.90;;;;;;;15.97;30.16;98409.34;116075;1184;59619;-70
2021/10/08 10:45:24;;;;;;;16.10;8.40;;;;;;;15.74;28.90;98403.07;116019;1186;70754;-69
2021/10/08 10:48:23;;;;;;;12.40;7.30;;;;;;;15.39;29.90;98398.56;115991;1184;67169;-70
2021/10/08 10:51:20;;;;;;;11.00;6.20;;;;;;;15.26;30.60;98397.37;115920;1184;69213;-70
2021/10/08 10:53:54;;;;;;;7.60;4.60;;;;;;;15.37;30.38;98400.09;115989;1184;59599;-70
2021/10/08 10:56:42;;;;;;;11.60;5.90;;;;;;;15.49;30.23;98399.48;116009;1185;59556;-69
2021/10/08 10:59:28;;;;;;;10.80;4.90;;;;;;;15.48;28.55;98394.48;115915;1185;71499;-71
2021/10/08 11:02:25;;;;;;;7.50;4.10;;;;;;;15.45;26.75;98387.85;116002;1184;68592;-67
2021/10/08 11:05:22;;;;;;;8.10;4.30;;;;;;;15.32;26.88;98388.91;115930;1184;69122;-69
2021/10/08 11:08:19;;;;;;;8.40;3.40;;;;;;;15.18;26.87;98384.16;115957;1185;59586;-69
2021/10/08 11:11:01;;;;;;;6.80;3.80;;;;;;;14.98;25.94;98382.16;116017;1183;59513;-71
2021/10/08 11:13:39;;;;;;;9.60;3.90;;;;;;;14.71;26.28;98381.73;116018;1184;71425;-68
2021/10/08 11:16:30;;;;;;;6.80;3.50;;;;;;;14.64;27.03;98378.34;115975;1184;66949;-69
2021/10/08 11:19:45;;;;;;;8.60;3.90;;;;;;;14.54;26.50;98377.52;115981;1184;68612;-70
2021/10/08 11:22:45;;;;;;;7.40;4.10;;;;;;;14.37;26.76;98374.20;115999;1184;59548;-67
2021/10/08 11:25:27;;;;;;;7.80;3.90;;;;;;;14.28;27.62;98374.34;116016;1179;59789;-65
2021/10/08 11:27:59;;;;;;;6.80;3.60;;;;;;;14.35;26.67;98373.51;116039;1184;71413;-68
2021/10/08 11:30:37;;;;;;;7.70;4.40;;;;;;;14.39;26.38;98369.48;116030;1176;67667;-69
2021/10/08 11:33:33;;;;;;;7.30;3.60;;;;;;;14.23;25.79;98363.68;115974;1185;68340;-70
2021/10/08 11:36:16;;;;;;;8.40;4.20;;;;;;;14.29;27.25;98363.56;115977;1186;59612;-70
2021/10/08 11:39:13;;;;;;;9.90;3.60;;;;;;;14.41;27.82;98367.64;116030;1184;59805;-68
2021/10/08 11:42:15;;;;;;;6.60;4.00;;;;;;;14.54;27.76;98370.55;116043;1184;71678;-69
2021/10/08 11:45:04;;;;;;;8.70;3.80;;;;;;;14.70;27.27;98366.70;115956;1185;68602;-65
2021/10/08 11:47:46;;;;;;;8.30;4.20;;;;;;;14.82;26.77;98371.84;115940;1184;68518;-66
2021/10/08 11:53:15;;;;;;;7.50;4.40;;;;;;;15.18;25.65;98375.23;115925;1184;59522;-72
2021/10/08 11:56:51;;;;;;;;;;;;;;;15.27;25.47;98379.89;115977;1184;70446;-70
2021/10/08 11:59:24;;;;;;;6.90;3.60;;;;;;;15.32;24.75;98382.75;115987;1185;68162;-70